createdAt,value
2022-08-26T00:02:07.566Z,1
2022-08-26T00:12:07.398Z,1
2022-08-26T00:22:07.488Z,1
2022-08-26T00:32:07.441Z,1
2022-08-26T00:42:07.474Z,1
2022-08-26T00:52:09.763Z,1
2022-08-26T01:02:07.516Z,1
2022-08-26T01:12:07.590Z,1
2022-08-26T01:22:07.485Z,1
2022-08-26T01:32:07.591Z,1
2022-08-26T01:42:10.316Z,1
2022-08-26T01:52:07.575Z,1
2022-08-26T02:02:07.486Z,1
2022-08-26T02:12:07.586Z,1
2022-08-26T02:22:07.488Z,1
2022-08-26T02:32:07.576Z,1
2022-08-26T02:42:07.487Z,1
2022-08-26T02:52:07.584Z,1
2022-08-26T03:02:07.756Z,1
2022-08-26T03:12:07.614Z,1
2022-08-26T03:22:07.709Z,1
2022-08-26T03:32:07.590Z,1
2022-08-26T03:42:07.685Z,1
2022-08-26T03:52:07.587Z,1
2022-08-26T04:02:08.418Z,1
2022-08-26T04:12:07.767Z,1
2022-08-26T04:22:07.677Z,1
2022-08-26T04:32:07.780Z,1
2022-08-26T04:42:07.669Z,5
2022-08-26T04:52:07.818Z,14
2022-08-26T05:02:07.686Z,39
2022-08-26T05:12:07.764Z,58
2022-08-26T05:22:07.650Z,63
2022-08-26T05:32:07.755Z,71
2022-08-26T05:42:07.856Z,79
2022-08-26T05:52:07.746Z,83
2022-08-26T06:02:07.851Z,85
2022-08-26T06:12:07.749Z,88
2022-08-26T06:22:07.852Z,91
2022-08-26T06:32:08.745Z,89
2022-08-26T06:42:07.843Z,94
2022-08-26T06:52:07.729Z,95
2022-08-26T07:02:08.105Z,96
2022-08-26T07:12:07.946Z,96
2022-08-26T07:22:08.604Z,96
2022-08-26T07:32:07.933Z,96
2022-08-26T07:42:08.155Z,96
2022-08-26T07:52:07.931Z,96
2022-08-26T08:02:07.815Z,96
2022-08-26T08:12:07.925Z,96
2022-08-26T08:22:17.690Z,96
2022-08-26T08:32:11.502Z,97
2022-08-26T08:42:08.019Z,97
2022-08-26T08:52:07.928Z,97
2022-08-26T09:02:08.174Z,98
2022-08-26T09:12:08.143Z,98
2022-08-26T09:22:09.457Z,98
2022-08-26T09:32:08.052Z,98
2022-08-26T09:42:08.109Z,98
2022-08-26T09:52:08.039Z,98
2022-08-26T10:02:07.938Z,98
2022-08-26T10:12:08.232Z,98
2022-08-26T10:22:08.185Z,97
2022-08-26T10:32:08.056Z,97
2022-08-26T10:42:08.126Z,98
2022-08-26T10:52:12.182Z,98
2022-08-26T11:02:08.157Z,98
2022-08-26T11:12:10.156Z,98
2022-08-26T11:22:08.135Z,97
2022-08-26T11:32:08.011Z,97
2022-08-26T11:42:08.110Z,97
2022-08-26T11:52:08.216Z,97
2022-08-26T12:02:08.103Z,97
2022-08-26T12:12:08.201Z,97
2022-08-26T12:22:08.107Z,97
2022-08-26T12:32:08.213Z,97
2022-08-26T12:42:08.101Z,97
2022-08-26T12:52:08.201Z,97
2022-08-26T13:02:08.392Z,97
2022-08-26T13:12:08.198Z,97
2022-08-26T13:22:08.286Z,97
2022-08-26T13:32:08.194Z,97
2022-08-26T13:42:08.297Z,97
2022-08-26T13:52:08.177Z,97
2022-08-26T14:02:08.281Z,97
2022-08-26T14:12:08.182Z,96
2022-08-26T14:22:08.281Z,96
2022-08-26T14:32:08.378Z,96
2022-08-26T14:42:08.273Z,96
2022-08-26T14:52:08.382Z,96
2022-08-26T15:02:08.354Z,96
2022-08-26T15:12:08.387Z,96
2022-08-26T15:22:08.272Z,96
2022-08-26T15:32:08.374Z,96
2022-08-26T15:42:08.469Z,96
2022-08-26T15:52:08.357Z,96
2022-08-26T16:02:08.495Z,96
2022-08-26T16:12:08.375Z,96
2022-08-26T16:22:08.446Z,96
2022-08-26T16:32:08.353Z,95
2022-08-26T16:42:08.467Z,95
2022-08-26T16:52:08.370Z,95
2022-08-26T17:02:08.478Z,95
2022-08-26T17:12:08.561Z,95
2022-08-26T17:22:08.450Z,95
2022-08-26T17:32:08.557Z,95
2022-08-26T17:42:08.495Z,95
2022-08-26T17:52:11.418Z,94
2022-08-26T18:02:08.488Z,93
2022-08-26T18:12:08.606Z,93
2022-08-26T18:22:08.493Z,91
2022-08-26T18:32:09.442Z,90
2022-08-26T18:42:09.475Z,86
2022-08-26T18:52:09.955Z,82
2022-08-26T19:02:09.656Z,75
2022-08-26T19:12:08.607Z,66
2022-08-26T19:22:08.496Z,45
2022-08-26T19:32:08.660Z,26
2022-08-26T19:42:08.862Z,9
2022-08-26T19:52:08.642Z,2
2022-08-26T20:02:10.987Z,2
2022-08-26T20:12:08.749Z,2
2022-08-26T20:22:08.740Z,1
2022-08-26T20:32:08.674Z,1
2022-08-26T20:42:19.990Z,1
2022-08-26T20:52:08.797Z,1
2022-08-26T21:02:08.701Z,1
2022-08-26T21:12:08.775Z,1
2022-08-26T21:22:08.666Z,1
2022-08-26T21:32:08.814Z,1
2022-08-26T21:42:08.660Z,1
2022-08-26T21:52:08.779Z,1
2022-08-26T22:02:08.725Z,1
2022-08-26T22:12:08.785Z,1
2022-08-26T22:22:08.852Z,1
2022-08-26T22:32:08.881Z,1
2022-08-26T22:42:08.863Z,1
2022-08-26T22:52:08.752Z,1
2022-08-26T23:02:08.847Z,1
2022-08-26T23:12:08.742Z,1
2022-08-26T23:22:08.857Z,1
2022-08-26T23:32:08.830Z,1
2022-08-26T23:42:08.855Z,1
2022-08-26T23:52:08.995Z,1
